createdAt,value
2023-01-30T00:00:35.738Z,0.40
2023-01-30T00:03:03.896Z,0.40
2023-01-30T00:05:31.945Z,0.50
2023-01-30T00:07:59.949Z,0.50
2023-01-30T00:10:29.815Z,0.50
2023-01-30T00:12:57.698Z,0.50
2023-01-30T00:15:25.689Z,0.40
2023-01-30T00:17:53.615Z,0.40
2023-01-30T00:20:21.667Z,0.50
2023-01-30T00:23:00.402Z,0.40
2023-01-30T00:25:31.512Z,0.40
2023-01-30T00:28:01.292Z,0.40
2023-01-30T00:30:29.862Z,0.40
2023-01-30T00:32:59.409Z,0.40
2023-01-30T00:35:29.418Z,0.30
2023-01-30T00:37:58.365Z,0.20
2023-01-30T00:40:27.292Z,0.20
2023-01-30T00:43:14.513Z,0.30
2023-01-30T00:46:02.078Z,0.40
2023-01-30T00:48:30.372Z,0.40
2023-01-30T00:50:58.265Z,0.40
2023-01-30T00:53:26.484Z,0.40
2023-01-30T00:55:55.860Z,0.40
2023-01-30T00:58:25.609Z,0.40
2023-01-30T01:00:53.712Z,0.40
2023-01-30T01:03:21.942Z,0.40
2023-01-30T01:05:50.177Z,0.40
2023-01-30T01:08:18.216Z,0.40
2023-01-30T01:10:46.155Z,0.40
2023-01-30T01:13:14.038Z,0.30
2023-01-30T01:15:43.335Z,0.40
2023-01-30T01:18:11.234Z,0.40
2023-01-30T01:20:39.280Z,0.40
2023-01-30T01:23:07.310Z,0.40
2023-01-30T01:25:35.329Z,0.50
2023-01-30T01:28:03.284Z,0.50
2023-01-30T01:30:31.226Z,0.50
2023-01-30T01:33:00.545Z,0.60
2023-01-30T01:35:28.616Z,0.50
2023-01-30T01:37:58.496Z,0.50
2023-01-30T01:40:46.908Z,0.50
2023-01-30T01:43:18.799Z,0.60
2023-01-30T01:45:50.818Z,0.60
2023-01-30T01:48:26.276Z,0.60
2023-01-30T01:50:58.272Z,0.60
2023-01-30T01:53:29.440Z,0.60
2023-01-30T01:56:00.972Z,0.60
2023-01-30T01:58:32.559Z,0.60
2023-01-30T02:01:01.947Z,0.60
2023-01-30T02:03:35.877Z,0.60
2023-01-30T02:06:05.445Z,0.70
2023-01-30T02:08:36.237Z,0.60
2023-01-30T02:11:09.357Z,0.60
2023-01-30T02:13:38.633Z,0.70
2023-01-30T02:16:08.803Z,0.60
2023-01-30T02:18:41.210Z,0.60
2023-01-30T02:21:47.441Z,0.60
2023-01-30T02:24:49.951Z,0.70
2023-01-30T02:28:03.233Z,0.70
2023-01-30T02:31:07.338Z,0.60
2023-01-30T02:33:49.862Z,0.60
2023-01-30T02:36:26.904Z,0.60
2023-01-30T02:39:03.457Z,0.60
2023-01-30T02:41:36.840Z,0.60
2023-01-30T02:44:12.696Z,0.60
2023-01-30T02:46:51.586Z,0.70
2023-01-30T02:49:25.239Z,0.60
2023-01-30T02:54:26.664Z,0.70
2023-01-30T02:56:58.605Z,0.70
2023-01-30T02:59:31.482Z,0.70
2023-01-30T03:02:29.948Z,0.70
2023-01-30T03:05:30.027Z,0.70
2023-01-30T03:08:15.241Z,0.80
2023-01-30T03:10:50.622Z,0.70
2023-01-30T03:13:27.170Z,0.80
2023-01-30T03:16:03.983Z,0.80
2023-01-30T03:18:33.473Z,0.90
2023-01-30T03:21:06.643Z,0.90
2023-01-30T03:23:34.917Z,0.90
2023-01-30T03:26:05.135Z,0.90
2023-01-30T03:28:36.167Z,0.80
2023-01-30T03:31:04.223Z,0.90
2023-01-30T03:33:33.589Z,0.80
2023-01-30T03:36:01.543Z,0.90
2023-01-30T03:38:29.621Z,0.90
2023-01-30T03:40:57.796Z,0.90
2023-01-30T03:43:25.767Z,0.90
2023-01-30T03:45:53.835Z,0.90
2023-01-30T03:48:21.799Z,0.90
2023-01-30T03:50:51.230Z,0.90
2023-01-30T03:53:19.341Z,0.90
2023-01-30T03:55:47.336Z,1.00
2023-01-30T03:58:15.369Z,1.00
2023-01-30T04:00:43.481Z,1.00
2023-01-30T04:03:11.500Z,1.00
2023-01-30T04:05:39.419Z,1.00
2023-01-30T04:08:08.707Z,1.00
2023-01-30T04:10:36.706Z,1.00
2023-01-30T04:13:07.258Z,1.00
2023-01-30T04:15:35.288Z,1.00
2023-01-30T04:18:03.251Z,1.10
2023-01-30T04:20:31.233Z,1.10
2023-01-30T04:23:02.262Z,1.10
2023-01-30T04:25:31.617Z,1.10
2023-01-30T04:28:02.384Z,1.00
2023-01-30T04:30:30.446Z,1.10
2023-01-30T04:32:58.461Z,1.10
2023-01-30T04:35:26.655Z,1.10
2023-01-30T04:37:54.657Z,1.10
2023-01-30T04:40:22.556Z,1.10
2023-01-30T04:42:51.858Z,1.10
2023-01-30T04:45:20.131Z,1.10
2023-01-30T04:47:48.268Z,1.10
2023-01-30T04:50:16.680Z,1.20
2023-01-30T04:52:47.474Z,1.20
2023-01-30T04:55:15.681Z,1.30
2023-01-30T04:57:43.842Z,1.30
2023-01-30T05:00:14.345Z,1.20
2023-01-30T05:02:42.315Z,1.30
2023-01-30T05:05:10.824Z,1.30
2023-01-30T05:07:38.876Z,1.30
2023-01-30T05:10:08.008Z,1.40
2023-01-30T05:12:36.069Z,1.30
2023-01-30T05:15:04.173Z,1.40
2023-01-30T05:17:33.581Z,1.40
2023-01-30T05:20:01.787Z,1.40
2023-01-30T05:22:29.731Z,1.40
2023-01-30T05:24:58.501Z,1.30
2023-01-30T05:27:26.572Z,1.40
2023-01-30T05:29:54.591Z,1.40
2023-01-30T05:32:22.651Z,1.40
2023-01-30T05:34:51.974Z,1.40
2023-01-30T05:37:19.931Z,1.40
2023-01-30T05:39:47.929Z,1.40
2023-01-30T05:42:17.140Z,1.40
2023-01-30T05:44:45.087Z,1.50
2023-01-30T05:47:13.066Z,1.40
2023-01-30T05:49:41.075Z,1.40
2023-01-30T05:52:10.434Z,1.40
2023-01-30T05:54:38.388Z,1.50
2023-01-30T05:57:06.393Z,1.40
2023-01-30T05:59:34.443Z,1.40
2023-01-30T06:02:02.593Z,1.40
2023-01-30T06:04:30.598Z,1.40
2023-01-30T06:07:04.038Z,1.40
2023-01-30T06:09:33.399Z,1.40
2023-01-30T06:12:01.354Z,1.40
2023-01-30T06:14:31.048Z,1.40
2023-01-30T06:17:00.771Z,1.50
2023-01-30T06:19:28.796Z,1.50
2023-01-30T06:21:56.804Z,1.50
2023-01-30T06:24:24.759Z,1.50
2023-01-30T06:26:54.101Z,1.50
2023-01-30T06:29:22.104Z,1.50
2023-01-30T06:31:52.949Z,1.50
2023-01-30T06:34:20.871Z,1.50
2023-01-30T06:36:50.683Z,1.60
2023-01-30T06:39:18.611Z,1.60
2023-01-30T06:41:46.627Z,1.60
2023-01-30T06:44:17.908Z,1.60
2023-01-30T06:46:45.909Z,1.60
2023-01-30T06:49:13.827Z,1.60
2023-01-30T06:51:41.865Z,1.60
2023-01-30T06:54:09.897Z,1.70
2023-01-30T06:56:37.842Z,1.60
2023-01-30T06:59:05.879Z,1.70
2023-01-30T07:01:35.446Z,1.70
2023-01-30T07:04:03.530Z,1.60
2023-01-30T07:06:31.653Z,1.60
2023-01-30T07:08:59.681Z,1.50
2023-01-30T07:11:27.761Z,1.50
2023-01-30T07:13:58.943Z,1.50
2023-01-30T07:16:29.372Z,1.50
2023-01-30T07:18:59.053Z,1.60
2023-01-30T07:21:27.516Z,1.60
2023-01-30T07:23:55.740Z,1.60
2023-01-30T07:26:23.766Z,1.60
2023-01-30T07:28:51.799Z,1.60
2023-01-30T07:31:19.815Z,1.70
2023-01-30T07:33:47.824Z,1.70
2023-01-30T07:36:17.211Z,1.70
2023-01-30T07:38:45.163Z,1.60
2023-01-30T07:41:13.201Z,1.60
2023-01-30T07:43:41.192Z,1.60
2023-01-30T07:46:09.647Z,1.60
2023-01-30T07:48:37.619Z,1.60
2023-01-30T07:51:05.570Z,1.60
2023-01-30T07:53:34.905Z,1.60
2023-01-30T07:56:08.262Z,1.50
2023-01-30T07:58:36.312Z,1.60
2023-01-30T08:01:04.452Z,1.60
2023-01-30T08:03:32.546Z,1.60
2023-01-30T08:06:00.646Z,1.60
2023-01-30T08:08:28.608Z,1.60
2023-01-30T08:10:57.901Z,1.70
2023-01-30T08:13:33.459Z,1.80
2023-01-30T08:16:02.701Z,1.80
2023-01-30T08:18:31.216Z,1.80
2023-01-30T08:21:04.798Z,1.80
2023-01-30T08:23:33.124Z,1.90
2023-01-30T08:26:04.440Z,2.00
2023-01-30T08:28:32.802Z,2.00
2023-01-30T08:31:01.627Z,2.00
2023-01-30T08:33:29.766Z,1.90
2023-01-30T08:35:58.074Z,2.00
2023-01-30T08:38:26.069Z,2.10
2023-01-30T08:40:54.182Z,2.10
2023-01-30T08:43:23.706Z,2.20
2023-01-30T08:45:54.729Z,2.20
2023-01-30T08:48:22.749Z,2.10
2023-01-30T08:50:52.958Z,2.20
2023-01-30T08:53:21.245Z,2.20
2023-01-30T08:55:52.313Z,2.20
2023-01-30T08:58:20.696Z,2.20
2023-01-30T09:00:50.619Z,2.20
2023-01-30T09:03:19.171Z,2.20
2023-01-30T09:05:48.303Z,2.20
2023-01-30T09:08:16.248Z,2.20
2023-01-30T09:10:45.891Z,2.20
2023-01-30T09:13:13.914Z,2.30
2023-01-30T09:15:43.825Z,2.30
2023-01-30T09:18:13.144Z,2.40
2023-01-30T09:20:41.101Z,2.40
2023-01-30T09:23:09.095Z,2.40
2023-01-30T09:25:37.738Z,2.50
2023-01-30T09:28:05.990Z,2.50
2023-01-30T09:30:37.040Z,2.60
2023-01-30T09:33:05.160Z,2.60
2023-01-30T09:35:34.485Z,2.60
2023-01-30T09:38:03.045Z,2.60
2023-01-30T09:40:33.652Z,2.60
2023-01-30T09:43:15.879Z,2.60
2023-01-30T09:45:59.970Z,2.70
2023-01-30T09:48:32.658Z,2.80
2023-01-30T09:51:22.892Z,2.90
2023-01-30T09:54:16.162Z,2.90
2023-01-30T09:56:44.483Z,3.10
2023-01-30T09:59:22.997Z,3.20
2023-01-30T10:02:00.114Z,3.30
2023-01-30T10:04:32.681Z,3.30
2023-01-30T10:07:16.367Z,3.30
2023-01-30T10:09:53.792Z,3.30
2023-01-30T10:12:35.097Z,3.40
2023-01-30T10:15:20.145Z,3.50
2023-01-30T10:18:03.944Z,3.50
2023-01-30T10:20:40.739Z,3.60
2023-01-30T10:23:30.023Z,3.90
2023-01-30T10:26:02.527Z,4.00
2023-01-30T10:28:33.923Z,4.20
2023-01-30T10:31:06.480Z,4.30
2023-01-30T10:33:37.918Z,4.30
2023-01-30T10:36:11.964Z,4.70
2023-01-30T10:38:48.161Z,4.70
2023-01-30T10:41:27.856Z,4.80
2023-01-30T10:44:03.137Z,4.70
2023-01-30T10:47:06.899Z,4.70
2023-01-30T10:49:41.581Z,4.80
2023-01-30T10:52:24.344Z,4.80
2023-01-30T10:55:02.591Z,4.80
2023-01-30T10:57:43.313Z,4.80
2023-01-30T11:00:21.377Z,4.70
2023-01-30T11:03:15.838Z,4.80
2023-01-30T11:05:50.395Z,4.70
2023-01-30T11:08:28.057Z,4.80
2023-01-30T11:10:59.232Z,4.80
2023-01-30T11:13:31.797Z,4.80
2023-01-30T11:16:01.890Z,4.70
2023-01-30T11:21:27.009Z,4.80
2023-01-30T11:24:05.680Z,5.00
2023-01-30T11:26:46.679Z,5.10
2023-01-30T11:29:27.513Z,5.20
2023-01-30T11:31:56.001Z,5.30
2023-01-30T11:34:25.190Z,5.40
2023-01-30T11:36:53.292Z,5.60
2023-01-30T11:39:24.278Z,5.60
2023-01-30T11:42:04.593Z,5.70
2023-01-30T11:44:35.142Z,5.80
2023-01-30T11:47:17.622Z,5.80
2023-01-30T11:49:58.876Z,5.80
2023-01-30T11:52:39.681Z,5.70
2023-01-30T11:55:14.220Z,5.80
2023-01-30T11:57:48.743Z,5.60
2023-01-30T12:00:20.610Z,5.50
2023-01-30T12:02:51.106Z,5.40
2023-01-30T12:05:26.781Z,5.60
2023-01-30T12:07:54.992Z,5.70
2023-01-30T12:10:32.610Z,5.50
2023-01-30T12:13:07.763Z,5.50
2023-01-30T12:15:38.750Z,5.40
2023-01-30T12:18:15.795Z,5.40
2023-01-30T12:20:54.288Z,5.30
2023-01-30T12:23:32.884Z,5.30
2023-01-30T12:26:06.411Z,5.30
2023-01-30T12:28:47.423Z,5.40
2023-01-30T12:31:23.249Z,5.50
2023-01-30T12:33:54.790Z,5.50
2023-01-30T12:36:35.942Z,5.50
2023-01-30T12:39:16.177Z,5.40
2023-01-30T12:42:08.118Z,5.50
2023-01-30T12:44:50.985Z,5.50
2023-01-30T12:48:02.283Z,5.60
2023-01-30T12:50:41.041Z,5.60
2023-01-30T12:53:30.957Z,5.60
2023-01-30T12:56:23.214Z,5.60
2023-01-30T12:58:56.535Z,5.50
2023-01-30T13:01:35.576Z,5.50
2023-01-30T13:04:15.191Z,5.50
2023-01-30T13:06:59.272Z,5.50
2023-01-30T13:09:40.577Z,5.60
2023-01-30T13:12:17.645Z,5.70
2023-01-30T13:14:54.294Z,5.80
2023-01-30T13:17:39.999Z,5.90
2023-01-30T13:20:20.429Z,6.00
2023-01-30T13:22:54.347Z,6.00
2023-01-30T13:25:29.050Z,6.10
2023-01-30T13:28:02.387Z,6.10
2023-01-30T13:30:32.105Z,6.20
2023-01-30T13:33:07.867Z,6.10
2023-01-30T13:35:42.560Z,6.10
2023-01-30T13:38:18.125Z,6.10
2023-01-30T13:40:47.732Z,6.00
2023-01-30T13:43:22.106Z,6.00
2023-01-30T13:45:51.682Z,6.00
2023-01-30T13:48:36.057Z,6.00
2023-01-30T13:51:20.746Z,5.90
2023-01-30T13:53:54.190Z,6.00
2023-01-30T13:56:41.422Z,6.00
2023-01-30T13:59:19.695Z,6.10
2023-01-30T14:02:10.974Z,6.10
2023-01-30T14:04:49.067Z,6.00
2023-01-30T14:07:23.511Z,5.90
2023-01-30T14:10:03.071Z,5.80
2023-01-30T14:12:37.466Z,5.90
2023-01-30T14:15:08.144Z,5.80
2023-01-30T14:17:36.318Z,5.70
2023-01-30T14:20:16.371Z,5.50
2023-01-30T14:22:52.856Z,5.40
2023-01-30T14:25:46.050Z,5.20
2023-01-30T14:28:44.706Z,5.10
2023-01-30T14:31:12.943Z,5.00
2023-01-30T14:33:53.799Z,4.90
2023-01-30T14:36:36.096Z,4.80
2023-01-30T14:39:41.566Z,4.70
2023-01-30T14:42:24.423Z,4.60
2023-01-30T14:45:05.366Z,4.60
2023-01-30T14:47:46.525Z,4.60
2023-01-30T14:50:21.704Z,4.60
2023-01-30T14:52:56.544Z,4.60
2023-01-30T14:55:29.413Z,4.80
2023-01-30T14:58:01.027Z,5.10
2023-01-30T15:00:32.406Z,5.30
2023-01-30T15:03:04.426Z,5.40
2023-01-30T15:05:35.661Z,5.40
2023-01-30T15:08:09.707Z,5.40
2023-01-30T15:11:00.885Z,5.30
2023-01-30T15:13:48.920Z,5.20
2023-01-30T15:16:39.584Z,5.20
2023-01-30T15:19:24.106Z,5.10
2023-01-30T15:22:04.877Z,5.10
2023-01-30T15:25:13.745Z,5.00
2023-01-30T15:27:56.687Z,4.80
2023-01-30T15:30:40.417Z,4.70
2023-01-30T15:33:19.919Z,4.70
2023-01-30T15:35:51.263Z,4.70
2023-01-30T15:38:28.829Z,4.80
2023-01-30T15:41:01.742Z,4.70
2023-01-30T15:44:10.435Z,4.70
2023-01-30T15:46:49.360Z,4.60
2023-01-30T15:49:33.720Z,4.60
2023-01-30T15:52:13.564Z,4.60
2023-01-30T15:54:55.540Z,4.70
2023-01-30T15:57:37.537Z,4.60
2023-01-30T16:00:09.335Z,4.50
2023-01-30T16:02:38.494Z,4.30
2023-01-30T16:05:16.501Z,4.20
2023-01-30T16:07:46.925Z,4.30
2023-01-30T16:10:18.418Z,4.20
2023-01-30T16:12:48.337Z,4.30
2023-01-30T16:15:19.844Z,4.30
2023-01-30T16:18:05.502Z,4.20
2023-01-30T16:20:55.296Z,4.20
2023-01-30T16:23:32.509Z,4.10
2023-01-30T16:26:00.820Z,4.10
2023-01-30T16:28:32.147Z,4.20
2023-01-30T16:31:02.276Z,4.20
2023-01-30T16:33:36.292Z,4.20
2023-01-30T16:36:05.893Z,4.20
2023-01-30T16:38:40.832Z,4.30
2023-01-30T16:41:30.722Z,4.30
2023-01-30T16:44:17.690Z,4.30
2023-01-30T16:46:56.652Z,4.40
2023-01-30T16:49:31.570Z,4.50
2023-01-30T16:52:06.335Z,4.50
2023-01-30T16:54:36.136Z,4.50
2023-01-30T16:57:05.075Z,4.60
2023-01-30T16:59:36.374Z,4.60
2023-01-30T17:02:08.183Z,4.60
2023-01-30T17:04:41.216Z,4.60
2023-01-30T17:07:30.830Z,4.60
2023-01-30T17:09:59.147Z,4.60
2023-01-30T17:12:44.624Z,4.60
2023-01-30T17:15:33.437Z,4.60
2023-01-30T17:18:01.933Z,4.60
2023-01-30T17:20:40.795Z,4.70
2023-01-30T17:23:11.059Z,4.70
2023-01-30T17:25:43.107Z,4.70
2023-01-30T17:28:17.901Z,4.60
2023-01-30T17:30:47.447Z,4.60
2023-01-30T17:33:15.421Z,4.70
2023-01-30T17:35:44.056Z,4.80
2023-01-30T17:38:13.089Z,4.80
2023-01-30T17:40:42.879Z,4.80
2023-01-30T17:43:13.176Z,4.70
2023-01-30T17:45:41.503Z,4.60
2023-01-30T17:48:13.104Z,4.50
2023-01-30T17:50:41.229Z,4.50
2023-01-30T17:53:09.299Z,4.50
2023-01-30T17:55:39.480Z,4.60
2023-01-30T17:58:07.498Z,4.50
2023-01-30T18:00:35.424Z,4.60
2023-01-30T18:03:03.560Z,4.60
2023-01-30T18:05:32.895Z,4.60
2023-01-30T18:08:01.725Z,4.70
2023-01-30T18:10:29.778Z,4.60
2023-01-30T18:12:57.723Z,4.60
2023-01-30T18:15:25.759Z,4.60
2023-01-30T18:17:57.443Z,4.60
2023-01-30T18:20:25.461Z,4.60
2023-01-30T18:22:54.830Z,4.70
2023-01-30T18:25:22.851Z,4.70
2023-01-30T18:27:50.958Z,4.60
2023-01-30T18:30:20.103Z,4.60
2023-01-30T18:32:53.247Z,4.60
2023-01-30T18:35:22.534Z,4.60
2023-01-30T18:37:50.911Z,4.70
2023-01-30T18:40:21.614Z,4.80
2023-01-30T18:42:49.902Z,4.70
2023-01-30T18:45:18.014Z,4.80
2023-01-30T18:47:45.932Z,4.80
2023-01-30T18:50:13.888Z,4.80
2023-01-30T18:52:41.798Z,4.70
2023-01-30T18:55:10.149Z,4.70
2023-01-30T18:57:39.483Z,4.70
2023-01-30T19:00:08.706Z,4.70
2023-01-30T19:02:36.740Z,4.60
2023-01-30T19:05:04.904Z,4.60
2023-01-30T19:07:32.853Z,4.60
2023-01-30T19:10:00.745Z,4.70
2023-01-30T19:12:46.355Z,4.70
2023-01-30T19:15:15.740Z,4.80
2023-01-30T19:17:43.679Z,4.80
2023-01-30T19:20:12.784Z,4.80
2023-01-30T19:22:40.919Z,4.70
2023-01-30T19:25:09.726Z,4.80
2023-01-30T19:27:38.329Z,4.70
2023-01-30T19:30:07.768Z,4.70
2023-01-30T19:32:37.166Z,4.80
2023-01-30T19:35:05.870Z,4.80
2023-01-30T19:37:33.853Z,4.80
2023-01-30T19:40:02.395Z,4.90
2023-01-30T19:42:30.374Z,4.80
2023-01-30T19:44:58.378Z,4.80
2023-01-30T19:47:26.315Z,4.80
2023-01-30T19:49:55.869Z,4.90
2023-01-30T19:52:24.595Z,4.90
2023-01-30T19:54:52.685Z,4.90
2023-01-30T19:57:21.070Z,4.90
2023-01-30T19:59:49.050Z,4.90
2023-01-30T20:02:17.148Z,4.90
2023-01-30T20:04:45.241Z,4.90
2023-01-30T20:07:14.672Z,4.80
2023-01-30T20:09:43.081Z,4.80
2023-01-30T20:12:14.245Z,4.80
2023-01-30T20:14:43.365Z,4.70
2023-01-30T20:17:12.918Z,4.80
2023-01-30T20:19:41.036Z,4.80
2023-01-30T20:22:09.265Z,4.70
2023-01-30T20:24:39.090Z,4.80
2023-01-30T20:27:07.289Z,4.70
2023-01-30T20:29:35.381Z,4.80
2023-01-30T20:32:03.579Z,4.80
2023-01-30T20:34:31.788Z,4.80
2023-01-30T20:37:00.209Z,4.90
2023-01-30T20:39:28.518Z,4.90
2023-01-30T20:41:58.241Z,4.90
2023-01-30T20:44:27.070Z,4.90
2023-01-30T20:46:56.843Z,4.90
2023-01-30T20:49:25.182Z,4.90
2023-01-30T20:54:22.742Z,4.80
2023-01-30T20:56:53.352Z,4.80
2023-01-30T20:59:27.160Z,4.70
2023-01-30T21:01:55.596Z,4.70
2023-01-30T21:04:25.240Z,4.80
2023-01-30T21:06:53.798Z,4.90
2023-01-30T21:09:24.201Z,4.80
2023-01-30T21:11:55.417Z,4.70
2023-01-30T21:14:26.570Z,4.60
2023-01-30T21:16:55.050Z,4.50
2023-01-30T21:19:23.257Z,4.60
2023-01-30T21:21:54.176Z,4.50
2023-01-30T21:24:23.995Z,4.50
2023-01-30T21:26:53.665Z,4.40
2023-01-30T21:29:26.060Z,4.40
2023-01-30T21:31:54.714Z,4.60
2023-01-30T21:34:40.342Z,4.50
2023-01-30T21:37:27.461Z,4.50
2023-01-30T21:40:13.093Z,4.60
2023-01-30T21:42:58.755Z,4.60
2023-01-30T21:45:33.839Z,4.50
2023-01-30T21:48:25.271Z,4.50
2023-01-30T21:50:53.279Z,4.40
2023-01-30T21:53:21.308Z,4.30
2023-01-30T21:55:51.100Z,4.40
2023-01-30T21:58:20.863Z,4.30
2023-01-30T22:00:50.427Z,4.30
2023-01-30T22:03:22.337Z,4.30
2023-01-30T22:05:50.427Z,4.20
2023-01-30T22:08:19.840Z,4.20
2023-01-30T22:10:47.922Z,4.10
2023-01-30T22:13:15.902Z,4.10
2023-01-30T22:15:44.182Z,4.00
2023-01-30T22:18:13.528Z,3.90
2023-01-30T22:20:41.592Z,3.80
2023-01-30T22:23:09.605Z,3.70
2023-01-30T22:25:37.579Z,3.60
2023-01-30T22:28:06.004Z,3.50
2023-01-30T22:30:34.345Z,3.40
2023-01-30T22:33:02.338Z,3.20
2023-01-30T22:35:31.661Z,3.20
2023-01-30T22:37:59.602Z,3.10
2023-01-30T22:40:27.636Z,3.20
2023-01-30T22:42:55.630Z,3.20
2023-01-30T22:45:24.747Z,3.20
2023-01-30T22:47:52.766Z,3.20
2023-01-30T22:50:20.845Z,3.20
2023-01-30T22:52:50.231Z,3.30
2023-01-30T22:55:18.687Z,3.40
2023-01-30T22:57:46.953Z,3.40
2023-01-30T23:00:15.604Z,3.30
2023-01-30T23:02:43.732Z,3.30
2023-01-30T23:05:12.297Z,3.30
2023-01-30T23:07:40.412Z,3.30
2023-01-30T23:10:11.216Z,3.30
2023-01-30T23:12:59.494Z,3.30
2023-01-30T23:15:27.490Z,3.20
2023-01-30T23:18:12.873Z,3.10
2023-01-30T23:20:43.593Z,3.10
2023-01-30T23:23:11.660Z,3.10
2023-01-30T23:25:43.149Z,3.10
2023-01-30T23:28:11.500Z,3.20
2023-01-30T23:30:40.308Z,3.20
2023-01-30T23:33:08.535Z,3.30
2023-01-30T23:35:36.809Z,3.30
2023-01-30T23:38:18.851Z,3.30
2023-01-30T23:40:49.199Z,3.20
2023-01-30T23:43:17.477Z,3.10
2023-01-30T23:45:45.479Z,3.10
2023-01-30T23:48:13.493Z,3.30
2023-01-30T23:50:42.156Z,3.20
2023-01-30T23:53:11.221Z,3.30
2023-01-30T23:55:39.793Z,3.30
2023-01-30T23:58:09.170Z,3.40
